MV Lockmaster — WDF4136 — position and weather

sailwx.info

Track history (hours):
 
Tides and Currents Weather Stations Pressure Air Temp Water Temp Dewpoint Dewpoint Depression Visibility Wind Speed Wind Dir Waves Ship Positions

MV Lockmaster

Owner: River Construction, Metaire, LA. More information available from US FCC via Universal Licensing System and Coast Guard Vessel Documentation Center.

Last reported at 2016-Jun-30 15:33 UTC. Time now 2016-Jun-30 16:02 UTC.
Position N 29°60' W 089°59'.

Length 17 m.

Type: Towing. MMSI: 367448420.

Date/timePositionNaut miles runAvg speedWind from/ knotsBaromVisibWave heightAir tempDewpointWater temp
2016-Jun-30 15:33N 29°60' W 089°59'0 0.0
2016-Jun-30 14:33N 29°60' W 089°59'0 0.0
2016-Jun-30 13:33N 29°60' W 089°59'0 0.0
2016-Jun-30 12:33N 30°00' W 089°59'0 0.0
2016-Jun-30 11:33N 30°00' W 089°59'0 0.0
2016-Jun-30 10:33N 29°60' W 089°59'0 0.0
2016-Jun-30 09:33N 30°00' W 089°59'3 2.9
2016-Jun-30 08:33N 29°58' W 090°02'1 0.7
2016-Jun-30 07:33N 29°57' W 090°02'1 0.6
2016-Jun-30 06:33N 29°58' W 090°02'0 0.4
2016-Jun-30 05:33N 29°58' W 090°02'0 0.5
2016-Jun-30 04:33N 29°59' W 090°01'2 2.2
2016-Jun-30 03:33N 29°60' W 089°59'0 0.0
2016-Jun-30 02:33N 29°60' W 089°59'0 0.0
2016-Jun-30 01:33N 30°00' W 089°59'0 0.0
2016-Jun-30 00:33N 30°00' W 089°59'0 0.0
2016-Jun-29 23:33N 29°60' W 089°59'0 0.0
2016-Jun-29 22:33N 30°00' W 089°59'0 0.0
2016-Jun-29 21:33N 29°60' W 089°59'0 0.0
2016-Jun-29 20:33N 30°00' W 089°59'0 0.0
2016-Jun-29 19:33N 30°00' W 089°59'0 0.0
2016-Jun-29 18:33N 30°00' W 089°59'0 0.0
2016-Jun-29 17:33N 29°60' W 089°59'0 0.0
2016-Jun-29 16:33N 30°00' W 089°59'0 0.0
2016-Jun-29 15:33N 30°00' W 089°59'0 0.0
2016-Jun-29 14:33N 30°00' W 089°59'0 0.0
2016-Jun-29 13:33N 30°00' W 089°59'0 0.0
2016-Jun-29 12:33N 30°00' W 089°59'0 0.0
2016-Jun-29 11:33N 29°60' W 089°59'0 0.0
2016-Jun-29 10:33N 29°60' W 089°59'0 0.0
2016-Jun-29 09:33N 30°00' W 089°59'0 0.0
2016-Jun-29 08:33N 30°00' W 089°59'3 3.1
2016-Jun-29 07:33N 30°00' W 089°56'2 1.9
2016-Jun-29 06:33N 30°00' W 089°58'4 3.8
2016-Jun-29 05:33N 29°58' W 090°02'5 4.5
2016-Jun-29 04:33N 29°55' W 089°57'0 0.0
2016-Jun-29 03:33N 29°55' W 089°57'5 4.6
2016-Jun-29 02:33N 29°58' W 090°02'1 0.6
2016-Jun-29 01:33N 29°59' W 090°01'2 2.2
2016-Jun-29 00:33N 29°60' W 089°59'0 0.0
2016-Jun-28 23:33N 30°00' W 089°59'0 0.0
2016-Jun-28 22:33N 30°00' W 089°59'0 0.0
2016-Jun-28 21:33N 30°00' W 089°59'0 0.0
2016-Jun-28 20:33N 30°00' W 089°59'0 0.0
2016-Jun-28 19:33N 30°00' W 089°59'0 0.0
2016-Jun-28 18:33N 29°60' W 089°59'0 0.0
2016-Jun-28 17:33N 29°60' W 089°59'0 0.0
2016-Jun-28 16:33N 30°00' W 089°59'0 0.0
2016-Jun-28 15:33N 30°00' W 089°59'0 0.0
2016-Jun-28 14:33N 29°60' W 089°59'0 0.0
2016-Jun-28 13:33N 30°00' W 089°59'0 0.0
2016-Jun-28 12:33N 30°00' W 089°59'0 0.1
2016-Jun-28 11:33N 29°60' W 089°59'0 0.1
2016-Jun-28 10:33N 30°00' W 089°59'0 0.0
2016-Jun-28 09:33N 29°60' W 089°59'0 0.0
2016-Jun-28 08:33N 30°00' W 089°59'0 0.0
2016-Jun-28 07:33N 30°00' W 089°59'0 0.0
2016-Jun-28 06:33N 30°00' W 089°59'0 0.0
2016-Jun-28 04:33N 29°60' W 089°59'3 2.9
2016-Jun-28 03:33N 29°58' W 090°02'0 0.0
2016-Jun-28 02:33N 29°58' W 090°02'4 4.1
2016-Jun-28 01:33N 29°56' W 089°58'0 0.4
2016-Jun-28 00:33N 29°55' W 089°57'5 4.6
2016-Jun-27 23:33N 29°58' W 090°02'3 2.6
2016-Jun-27 22:33N 29°60' W 089°60'0 0.1
2016-Jun-27 21:33N 29°60' W 089°59'0 0.0
2016-Jun-27 20:33N 30°00' W 089°59'2 2.4
2016-Jun-27 19:33N 30°00' W 089°57'2 1.6
2016-Jun-27 18:33N 29°60' W 089°59'1 0.8
2016-Jun-27 17:33N 30°00' W 089°59'0 0.0
2016-Jun-27 16:33N 30°00' W 089°59'0 0.0
2016-Jun-27 15:33N 30°00' W 089°59'0 0.0
2016-Jun-27 14:33N 29°60' W 089°59'0 0.2
2016-Jun-27 13:33N 29°60' W 089°59'3 2.8
2016-Jun-27 12:31N 30°00' W 089°56'3 3.2
2016-Jun-27 11:33N 29°60' W 089°59'0 0.0
2016-Jun-27 10:33N 30°00' W 089°59'3 3.3
2016-Jun-27 09:33N 30°00' W 089°56'3 3.4
2016-Jun-27 08:33N 30°00' W 089°59'0 0.0
2016-Jun-27 07:34N 30°00' W 089°59'1 0.7
2016-Jun-27 06:33N 29°60' W 090°00'2 1.6
2016-Jun-27 05:33N 29°59' W 090°01'1 0.8
2016-Jun-27 04:33N 29°58' W 090°02'0 0.5
2016-Jun-27 03:33N 29°57' W 090°01'0 0.0
2016-Jun-27 02:33N 29°57' W 090°01'4 3.9
2016-Jun-27 01:33N 29°55' W 089°57'0 0.2
2016-Jun-27 00:33N 29°55' W 089°57'5 4.6
2016-Jun-26 23:33N 29°58' W 090°02'1 1.0
2016-Jun-26 22:33N 29°59' W 090°01'1 1.0
2016-Jun-26 21:33N 29°58' W 090°02'1 0.5
2016-Jun-26 20:33N 29°57' W 090°02'1 0.6
2016-Jun-26 19:33N 29°58' W 090°02'0 0.2
2016-Jun-26 18:33N 29°58' W 090°02'0 0.5
2016-Jun-26 17:33N 29°59' W 090°01'2 2.2
2016-Jun-26 16:33N 30°00' W 089°59'0 0.0
2016-Jun-26 15:33N 30°00' W 089°59'0 0.0
2016-Jun-26 14:33N 30°00' W 089°59'0 0.0
2016-Jun-26 13:33N 30°00' W 089°59'0 0.0
2016-Jun-26 12:33N 30°00' W 089°59'1 1.4
2016-Jun-26 11:33N 30°00' W 089°58'2 1.6
2016-Jun-26 10:30N 30°00' W 089°56'6 5.9
2016-Jun-26 09:33N 29°58' W 090°02'1 0.8
2016-Jun-26 08:33N 29°58' W 090°02'1 0.7
2016-Jun-26 07:33N 29°58' W 090°02'0 0.2
2016-Jun-26 06:33N 29°58' W 090°02'0 0.3
2016-Jun-26 05:33N 29°58' W 090°01'2 2.4
2016-Jun-26 04:33N 29°60' W 089°59'2 1.9
2016-Jun-26 03:33N 29°59' W 090°01'2 1.8
2016-Jun-26 02:33N 29°60' W 089°59'0 0.1
2016-Jun-26 01:33N 29°60' W 089°59'0 0.0
2016-Jun-26 00:33N 30°00' W 089°59'0 0.0
2016-Jun-25 23:33N 30°00' W 089°59'0 0.0
2016-Jun-25 22:33N 30°00' W 089°59'3 3.1
2016-Jun-25 21:33N 29°58' W 090°02'4 4.3
2016-Jun-25 20:33N 29°55' W 089°57'0 0.2
2016-Jun-25 19:33N 29°55' W 089°57'5 4.7
2016-Jun-25 18:33N 29°58' W 090°02'0 0.3
2016-Jun-25 17:33N 29°58' W 090°02'0 0.2
2016-Jun-25 16:33N 29°58' W 090°02'2 2.4
2016-Jun-25 15:33N 30°00' W 089°59'0 0.1
2016-Jun-25 14:33N 29°60' W 089°59'4 4.3
2016-Jun-25 13:33N 29°57' W 090°03'2 1.9
2016-Jun-25 12:33N 29°55' W 090°04'2 2.1
2016-Jun-25 11:33N 29°57' W 090°03'1 0.6
2016-Jun-25 10:33N 29°57' W 090°02'1 1.1
2016-Jun-25 09:33N 29°58' W 090°01'2 2.3
2016-Jun-25 08:33N 30°00' W 089°59'0 0.0
2016-Jun-25 07:33N 30°00' W 089°59'0 0.0
2016-Jun-25 06:33N 30°00' W 089°59'0 0.0
2016-Jun-25 05:33N 30°00' W 089°59'0 0.0
2016-Jun-25 04:33N 30°00' W 089°59'0 0.0
2016-Jun-25 03:33N 30°00' W 089°59'0 0.0
2016-Jun-25 02:33N 30°00' W 089°59'0 0.0
2016-Jun-25 01:33N 29°60' W 089°59'0 0.0
2016-Jun-25 00:33N 30°00' W 089°59'0 0.0
2016-Jun-24 23:33N 30°00' W 089°59'0 0.0
2016-Jun-24 22:33N 29°60' W 089°59'0 0.0
2016-Jun-24 21:33N 30°00' W 089°59'0 0.1
2016-Jun-24 20:33N 29°60' W 089°59'0 0.1
2016-Jun-24 19:33N 29°60' W 089°59'0 0.0
2016-Jun-24 18:33N 30°00' W 089°59'0 0.0
2016-Jun-24 17:33N 29°60' W 089°59'0 0.0
2016-Jun-24 16:33N 29°60' W 089°59'0 0.0
2016-Jun-24 15:33N 30°00' W 089°59'0 0.0
2016-Jun-24 14:33N 30°00' W 089°59'0 0.0
2016-Jun-24 13:33N 30°00' W 089°59'0 0.0
2016-Jun-24 12:33N 29°60' W 089°59'3 2.9
2016-Jun-24 11:33N 30°00' W 089°56'0 0.0
2016-Jun-24 10:26N 30°00' W 089°56'3 3.4
2016-Jun-24 09:33N 30°00' W 089°59'0 0.0
2016-Jun-24 08:33N 30°00' W 089°59'0 0.0
2016-Jun-24 07:33N 30°00' W 089°59'0 0.0
2016-Jun-24 04:33N 30°00' W 089°59'0 0.0
2016-Jun-24 03:33N 30°00' W 089°59'0 0.0
2016-Jun-24 02:33N 30°00' W 089°59'0 0.0
2016-Jun-24 01:33N 30°00' W 089°59'0 0.0
2016-Jun-24 00:33N 30°00' W 089°59'0 0.0
2016-Jun-23 23:33N 30°00' W 089°59'0 0.0
2016-Jun-23 22:33N 30°00' W 089°59'0 0.0
2016-Jun-23 21:33N 29°60' W 089°59'0 0.0
2016-Jun-23 20:08N 30°00' W 089°59'0 0.0
2016-Jun-23 19:33N 30°00' W 089°59'0 0.0
2016-Jun-23 17:33N 30°00' W 089°59'0 0.2
2016-Jun-23 16:33N 29°60' W 089°59'1 1.5
2016-Jun-23 15:33N 30°00' W 089°58'0 0.0
2016-Jun-23 14:33N 30°00' W 089°58'2 1.6
2016-Jun-23 13:33N 30°00' W 089°59'0 0.0
2016-Jun-23 12:33N 30°00' W 089°59'0 0.1
2016-Jun-23 11:33N 29°60' W 089°59'4 3.6
2016-Jun-23 10:26N 30°01' W 089°55'4 4.8
2016-Jun-23 09:33N 29°60' W 089°59'0 0.0
2016-Jun-23 08:33N 30°00' W 089°59'0 0.0
2016-Jun-23 07:34N 30°00' W 089°59'0 0.0
2016-Jun-23 05:33N 30°00' W 089°59'0 0.0
2016-Jun-23 04:33N 29°60' W 089°59'0 0.0
2016-Jun-23 03:34N 29°60' W 089°59'0 0.0
2016-Jun-23 02:33N 30°00' W 089°59'0 0.0
2016-Jun-23 01:33N 29°60' W 089°59'0 0.0
2016-Jun-23 00:33N 30°00' W 089°59'0 0.0
2016-Jun-22 23:33N 30°00' W 089°59'0 0.0
2016-Jun-22 22:33N 30°00' W 089°59'0 0.0
2016-Jun-22 21:33N 30°00' W 089°59'0 0.0
2016-Jun-22 20:34N 30°00' W 089°59'0 0.0
2016-Jun-22 19:33N 30°00' W 089°59'0 0.0
2016-Jun-22 16:33N 30°00' W 089°59'2 0.8
2016-Jun-22 14:33N 30°00' W 089°58'0 0.0
2016-Jun-22 13:33N 30°00' W 089°58'2 1.2
2016-Jun-22 12:17N 30°00' W 089°59'0 0.0
2016-Jun-22 11:33N 29°60' W 089°59'3 2.9
2016-Jun-22 10:33N 29°58' W 090°02'1 0.7
2016-Jun-22 09:33N 29°58' W 090°02'1 0.8
2016-Jun-22 08:33N 29°58' W 090°02'0 0.5
2016-Jun-22 07:33N 29°58' W 090°01'1 1.4
2016-Jun-22 06:33N 29°60' W 090°01'2 2.3
2016-Jun-22 05:33N 29°57' W 090°02'1 0.7
2016-Jun-22 04:33N 29°58' W 090°02'1 0.8
2016-Jun-22 03:33N 29°58' W 090°02'3 0.2
2016-Jun-21 12:17N 30°00' W 089°59'0 0.0
2016-Jun-21 11:10N 30°00' W 089°59'0 0.0
2016-Jun-20 20:15N 30°00' W 089°59'0 0.0
2016-Jun-20 19:33N 29°60' W 089°59'0 0.0
2016-Jun-20 18:33N 30°00' W 089°59'0 0.0
2016-Jun-20 17:33N 30°00' W 089°59'0 0.0
2016-Jun-20 16:33N 30°00' W 089°59'0 0.0
2016-Jun-20 15:33N 30°00' W 089°59'  
Track history (hours):
 
Tides and Currents Weather Stations Pressure Air Temp Water Temp Dewpoint Dewpoint Depression Visibility Wind Speed Wind Dir Waves Ship Positions

MV Lockmaster

Owner: River Construction, Metaire, LA. More information available from US FCC via Universal Licensing System and Coast Guard Vessel Documentation Center.

Last reported at 2016-Jun-30 15:33 UTC. Time now 2016-Jun-30 16:02 UTC.
Position N 29°60' W 089°59'.

Length 17 m.

Type: Towing. MMSI: 367448420.

Date/timePositionNaut miles runAvg speedWind from/ knotsBaromVisibWave heightAir tempDewpointWater temp
2016-Jun-30 15:33N 29°60' W 089°59'0 0.0
2016-Jun-30 14:33N 29°60' W 089°59'0 0.0
2016-Jun-30 13:33N 29°60' W 089°59'0 0.0
2016-Jun-30 12:33N 30°00' W 089°59'0 0.0
2016-Jun-30 11:33N 30°00' W 089°59'0 0.0
2016-Jun-30 10:33N 29°60' W 089°59'0 0.0
2016-Jun-30 09:33N 30°00' W 089°59'3 2.9
2016-Jun-30 08:33N 29°58' W 090°02'1 0.7
2016-Jun-30 07:33N 29°57' W 090°02'1 0.6
2016-Jun-30 06:33N 29°58' W 090°02'0 0.4
2016-Jun-30 05:33N 29°58' W 090°02'0 0.5
2016-Jun-30 04:33N 29°59' W 090°01'2 2.2
2016-Jun-30 03:33N 29°60' W 089°59'0 0.0
2016-Jun-30 02:33N 29°60' W 089°59'0 0.0
2016-Jun-30 01:33N 30°00' W 089°59'0 0.0
2016-Jun-30 00:33N 30°00' W 089°59'0 0.0
2016-Jun-29 23:33N 29°60' W 089°59'0 0.0
2016-Jun-29 22:33N 30°00' W 089°59'0 0.0
2016-Jun-29 21:33N 29°60' W 089°59'0 0.0
2016-Jun-29 20:33N 30°00' W 089°59'0 0.0
2016-Jun-29 19:33N 30°00' W 089°59'0 0.0
2016-Jun-29 18:33N 30°00' W 089°59'0 0.0
2016-Jun-29 17:33N 29°60' W 089°59'0 0.0
2016-Jun-29 16:33N 30°00' W 089°59'0 0.0
2016-Jun-29 15:33N 30°00' W 089°59'0 0.0
2016-Jun-29 14:33N 30°00' W 089°59'0 0.0
2016-Jun-29 13:33N 30°00' W 089°59'0 0.0
2016-Jun-29 12:33N 30°00' W 089°59'0 0.0
2016-Jun-29 11:33N 29°60' W 089°59'0 0.0
2016-Jun-29 10:33N 29°60' W 089°59'0 0.0
2016-Jun-29 09:33N 30°00' W 089°59'0 0.0
2016-Jun-29 08:33N 30°00' W 089°59'3 3.1
2016-Jun-29 07:33N 30°00' W 089°56'2 1.9
2016-Jun-29 06:33N 30°00' W 089°58'4 3.8
2016-Jun-29 05:33N 29°58' W 090°02'5 4.5
2016-Jun-29 04:33N 29°55' W 089°57'0 0.0
2016-Jun-29 03:33N 29°55' W 089°57'5 4.6
2016-Jun-29 02:33N 29°58' W 090°02'1 0.6
2016-Jun-29 01:33N 29°59' W 090°01'2 2.2
2016-Jun-29 00:33N 29°60' W 089°59'0 0.0
2016-Jun-28 23:33N 30°00' W 089°59'0 0.0
2016-Jun-28 22:33N 30°00' W 089°59'0 0.0
2016-Jun-28 21:33N 30°00' W 089°59'0 0.0
2016-Jun-28 20:33N 30°00' W 089°59'0 0.0
2016-Jun-28 19:33N 30°00' W 089°59'0 0.0
2016-Jun-28 18:33N 29°60' W 089°59'0 0.0
2016-Jun-28 17:33N 29°60' W 089°59'0 0.0
2016-Jun-28 16:33N 30°00' W 089°59'0 0.0
2016-Jun-28 15:33N 30°00' W 089°59'0 0.0
2016-Jun-28 14:33N 29°60' W 089°59'0 0.0
2016-Jun-28 13:33N 30°00' W 089°59'0 0.0
2016-Jun-28 12:33N 30°00' W 089°59'0 0.1
2016-Jun-28 11:33N 29°60' W 089°59'0 0.1
2016-Jun-28 10:33N 30°00' W 089°59'0 0.0
2016-Jun-28 09:33N 29°60' W 089°59'0 0.0
2016-Jun-28 08:33N 30°00' W 089°59'0 0.0
2016-Jun-28 07:33N 30°00' W 089°59'0 0.0
2016-Jun-28 06:33N 30°00' W 089°59'0 0.0
2016-Jun-28 04:33N 29°60' W 089°59'3 2.9
2016-Jun-28 03:33N 29°58' W 090°02'0 0.0
2016-Jun-28 02:33N 29°58' W 090°02'4 4.1
2016-Jun-28 01:33N 29°56' W 089°58'0 0.4
2016-Jun-28 00:33N 29°55' W 089°57'5 4.6
2016-Jun-27 23:33N 29°58' W 090°02'3 2.6
2016-Jun-27 22:33N 29°60' W 089°60'0 0.1
2016-Jun-27 21:33N 29°60' W 089°59'0 0.0
2016-Jun-27 20:33N 30°00' W 089°59'2 2.4
2016-Jun-27 19:33N 30°00' W 089°57'2 1.6
2016-Jun-27 18:33N 29°60' W 089°59'1 0.8
2016-Jun-27 17:33N 30°00' W 089°59'0 0.0
2016-Jun-27 16:33N 30°00' W 089°59'0 0.0
2016-Jun-27 15:33N 30°00' W 089°59'0 0.0
2016-Jun-27 14:33N 29°60' W 089°59'0 0.2
2016-Jun-27 13:33N 29°60' W 089°59'3 2.8
2016-Jun-27 12:31N 30°00' W 089°56'3 3.2
2016-Jun-27 11:33N 29°60' W 089°59'0 0.0
2016-Jun-27 10:33N 30°00' W 089°59'3 3.3
2016-Jun-27 09:33N 30°00' W 089°56'3 3.4
2016-Jun-27 08:33N 30°00' W 089°59'0 0.0
2016-Jun-27 07:34N 30°00' W 089°59'1 0.7
2016-Jun-27 06:33N 29°60' W 090°00'2 1.6
2016-Jun-27 05:33N 29°59' W 090°01'1 0.8
2016-Jun-27 04:33N 29°58' W 090°02'0 0.5
2016-Jun-27 03:33N 29°57' W 090°01'0 0.0
2016-Jun-27 02:33N 29°57' W 090°01'4 3.9
2016-Jun-27 01:33N 29°55' W 089°57'0 0.2
2016-Jun-27 00:33N 29°55' W 089°57'5 4.6
2016-Jun-26 23:33N 29°58' W 090°02'1 1.0
2016-Jun-26 22:33N 29°59' W 090°01'1 1.0
2016-Jun-26 21:33N 29°58' W 090°02'1 0.5
2016-Jun-26 20:33N 29°57' W 090°02'1 0.6
2016-Jun-26 19:33N 29°58' W 090°02'0 0.2
2016-Jun-26 18:33N 29°58' W 090°02'0 0.5
2016-Jun-26 17:33N 29°59' W 090°01'2 2.2
2016-Jun-26 16:33N 30°00' W 089°59'0 0.0
2016-Jun-26 15:33N 30°00' W 089°59'0 0.0
2016-Jun-26 14:33N 30°00' W 089°59'0 0.0
2016-Jun-26 13:33N 30°00' W 089°59'0 0.0
2016-Jun-26 12:33N 30°00' W 089°59'1 1.4
2016-Jun-26 11:33N 30°00' W 089°58'2 1.6
2016-Jun-26 10:30N 30°00' W 089°56'6 5.9
2016-Jun-26 09:33N 29°58' W 090°02'1 0.8
2016-Jun-26 08:33N 29°58' W 090°02'1 0.7
2016-Jun-26 07:33N 29°58' W 090°02'0 0.2
2016-Jun-26 06:33N 29°58' W 090°02'0 0.3
2016-Jun-26 05:33N 29°58' W 090°01'2 2.4
2016-Jun-26 04:33N 29°60' W 089°59'2 1.9
2016-Jun-26 03:33N 29°59' W 090°01'2 1.8
2016-Jun-26 02:33N 29°60' W 089°59'0 0.1
2016-Jun-26 01:33N 29°60' W 089°59'0 0.0
2016-Jun-26 00:33N 30°00' W 089°59'0 0.0
2016-Jun-25 23:33N 30°00' W 089°59'0 0.0
2016-Jun-25 22:33N 30°00' W 089°59'3 3.1
2016-Jun-25 21:33N 29°58' W 090°02'4 4.3
2016-Jun-25 20:33N 29°55' W 089°57'0 0.2
2016-Jun-25 19:33N 29°55' W 089°57'5 4.7
2016-Jun-25 18:33N 29°58' W 090°02'0 0.3
2016-Jun-25 17:33N 29°58' W 090°02'0 0.2
2016-Jun-25 16:33N 29°58' W 090°02'2 2.4
2016-Jun-25 15:33N 30°00' W 089°59'0 0.1
2016-Jun-25 14:33N 29°60' W 089°59'4 4.3
2016-Jun-25 13:33N 29°57' W 090°03'2 1.9
2016-Jun-25 12:33N 29°55' W 090°04'2 2.1
2016-Jun-25 11:33N 29°57' W 090°03'1 0.6
2016-Jun-25 10:33N 29°57' W 090°02'1 1.1
2016-Jun-25 09:33N 29°58' W 090°01'2 2.3
2016-Jun-25 08:33N 30°00' W 089°59'0 0.0
2016-Jun-25 07:33N 30°00' W 089°59'0 0.0
2016-Jun-25 06:33N 30°00' W 089°59'0 0.0
2016-Jun-25 05:33N 30°00' W 089°59'0 0.0
2016-Jun-25 04:33N 30°00' W 089°59'0 0.0
2016-Jun-25 03:33N 30°00' W 089°59'0 0.0
2016-Jun-25 02:33N 30°00' W 089°59'0 0.0
2016-Jun-25 01:33N 29°60' W 089°59'0 0.0
2016-Jun-25 00:33N 30°00' W 089°59'0 0.0
2016-Jun-24 23:33N 30°00' W 089°59'0 0.0
2016-Jun-24 22:33N 29°60' W 089°59'0 0.0
2016-Jun-24 21:33N 30°00' W 089°59'0 0.1
2016-Jun-24 20:33N 29°60' W 089°59'0 0.1
2016-Jun-24 19:33N 29°60' W 089°59'0 0.0
2016-Jun-24 18:33N 30°00' W 089°59'0 0.0
2016-Jun-24 17:33N 29°60' W 089°59'0 0.0
2016-Jun-24 16:33N 29°60' W 089°59'0 0.0
2016-Jun-24 15:33N 30°00' W 089°59'0 0.0
2016-Jun-24 14:33N 30°00' W 089°59'0 0.0
2016-Jun-24 13:33N 30°00' W 089°59'0 0.0
2016-Jun-24 12:33N 29°60' W 089°59'3 2.9
2016-Jun-24 11:33N 30°00' W 089°56'0 0.0
2016-Jun-24 10:26N 30°00' W 089°56'3 3.4
2016-Jun-24 09:33N 30°00' W 089°59'0 0.0
2016-Jun-24 08:33N 30°00' W 089°59'0 0.0
2016-Jun-24 07:33N 30°00' W 089°59'0 0.0
2016-Jun-24 04:33N 30°00' W 089°59'0 0.0
2016-Jun-24 03:33N 30°00' W 089°59'0 0.0
2016-Jun-24 02:33N 30°00' W 089°59'0 0.0
2016-Jun-24 01:33N 30°00' W 089°59'0 0.0
2016-Jun-24 00:33N 30°00' W 089°59'0 0.0
2016-Jun-23 23:33N 30°00' W 089°59'0 0.0
2016-Jun-23 22:33N 30°00' W 089°59'0 0.0
2016-Jun-23 21:33N 29°60' W 089°59'0 0.0
2016-Jun-23 20:08N 30°00' W 089°59'0 0.0
2016-Jun-23 19:33N 30°00' W 089°59'0 0.0
2016-Jun-23 17:33N 30°00' W 089°59'0 0.2
2016-Jun-23 16:33N 29°60' W 089°59'1 1.5
2016-Jun-23 15:33N 30°00' W 089°58'0 0.0
2016-Jun-23 14:33N 30°00' W 089°58'2 1.6
2016-Jun-23 13:33N 30°00' W 089°59'0 0.0
2016-Jun-23 12:33N 30°00' W 089°59'0 0.1
2016-Jun-23 11:33N 29°60' W 089°59'4 3.6
2016-Jun-23 10:26N 30°01' W 089°55'4 4.8
2016-Jun-23 09:33N 29°60' W 089°59'0 0.0
2016-Jun-23 08:33N 30°00' W 089°59'0 0.0
2016-Jun-23 07:34N 30°00' W 089°59'0 0.0
2016-Jun-23 05:33N 30°00' W 089°59'0 0.0
2016-Jun-23 04:33N 29°60' W 089°59'0 0.0
2016-Jun-23 03:34N 29°60' W 089°59'0 0.0
2016-Jun-23 02:33N 30°00' W 089°59'0 0.0
2016-Jun-23 01:33N 29°60' W 089°59'0 0.0
2016-Jun-23 00:33N 30°00' W 089°59'0 0.0
2016-Jun-22 23:33N 30°00' W 089°59'0 0.0
2016-Jun-22 22:33N 30°00' W 089°59'0 0.0
2016-Jun-22 21:33N 30°00' W 089°59'0 0.0
2016-Jun-22 20:34N 30°00' W 089°59'0 0.0
2016-Jun-22 19:33N 30°00' W 089°59'0 0.0
2016-Jun-22 16:33N 30°00' W 089°59'2 0.8
2016-Jun-22 14:33N 30°00' W 089°58'0 0.0
2016-Jun-22 13:33N 30°00' W 089°58'2 1.2
2016-Jun-22 12:17N 30°00' W 089°59'0 0.0
2016-Jun-22 11:33N 29°60' W 089°59'3 2.9
2016-Jun-22 10:33N 29°58' W 090°02'1 0.7
2016-Jun-22 09:33N 29°58' W 090°02'1 0.8
2016-Jun-22 08:33N 29°58' W 090°02'0 0.5
2016-Jun-22 07:33N 29°58' W 090°01'1 1.4
2016-Jun-22 06:33N 29°60' W 090°01'2 2.3
2016-Jun-22 05:33N 29°57' W 090°02'1 0.7
2016-Jun-22 04:33N 29°58' W 090°02'1 0.8
2016-Jun-22 03:33N 29°58' W 090°02'3 0.2
2016-Jun-21 12:17N 30°00' W 089°59'0 0.0
2016-Jun-21 11:10N 30°00' W 089°59'0 0.0
2016-Jun-20 20:15N 30°00' W 089°59'0 0.0
2016-Jun-20 19:33N 29°60' W 089°59'0 0.0
2016-Jun-20 18:33N 30°00' W 089°59'0 0.0
2016-Jun-20 17:33N 30°00' W 089°59'0 0.0
2016-Jun-20 16:33N 30°00' W 089°59'0 0.0
2016-Jun-20 15:33N 30°00' W 089°59'  

Dump ship's entire track history